createdAt,value
2023-02-17T00:01:13.745Z,6.90
2023-02-17T00:03:40.006Z,6.88
2023-02-17T00:06:09.805Z,6.93
2023-02-17T00:08:36.061Z,6.87
2023-02-17T00:11:02.285Z,6.87
2023-02-17T00:13:28.493Z,6.86
2023-02-17T00:15:54.992Z,6.84
2023-02-17T00:18:21.218Z,6.91
2023-02-17T00:20:47.462Z,6.84
2023-02-17T00:23:14.109Z,6.84
2023-02-17T00:25:40.474Z,6.89
2023-02-17T00:28:06.714Z,6.89
2023-02-17T00:30:33.363Z,6.86
2023-02-17T00:32:59.567Z,6.85
2023-02-17T00:35:25.821Z,6.85
2023-02-17T00:37:52.019Z,6.84
2023-02-17T00:40:18.296Z,6.90
2023-02-17T00:42:44.522Z,6.87
2023-02-17T00:45:10.747Z,6.87
2023-02-17T00:47:36.973Z,6.88
2023-02-17T00:50:03.220Z,6.86
2023-02-17T00:52:29.447Z,6.85
2023-02-17T00:54:55.671Z,6.84
2023-02-17T00:57:21.875Z,6.87
2023-02-17T00:59:48.102Z,6.83
2023-02-17T01:02:14.315Z,6.82
2023-02-17T01:04:40.618Z,6.82
2023-02-17T01:07:06.871Z,6.81
2023-02-17T01:09:33.089Z,6.83
2023-02-17T01:11:59.314Z,6.86
2023-02-17T01:14:25.521Z,6.85
2023-02-17T01:16:51.748Z,6.84
2023-02-17T01:19:18.432Z,6.90
2023-02-17T01:21:44.725Z,6.92
2023-02-17T01:24:11.044Z,6.90
2023-02-17T01:26:37.367Z,6.91
2023-02-17T01:29:03.788Z,6.91
2023-02-17T01:31:30.117Z,6.93
2023-02-17T01:33:56.891Z,6.96
2023-02-17T01:36:23.176Z,6.98
2023-02-17T01:38:49.393Z,7.00
2023-02-17T01:41:15.882Z,7.04
2023-02-17T01:43:42.119Z,7.01
2023-02-17T01:46:08.392Z,7.04
2023-02-17T01:48:36.232Z,7.05
2023-02-17T01:51:02.469Z,7.07
2023-02-17T01:53:30.622Z,7.07
2023-02-17T01:56:00.233Z,7.15
2023-02-17T01:58:26.473Z,7.12
2023-02-17T02:00:52.751Z,7.19
2023-02-17T02:03:18.978Z,7.16
2023-02-17T02:05:45.184Z,7.19
2023-02-17T02:08:11.428Z,7.18
2023-02-17T02:10:37.760Z,7.22
2023-02-17T02:13:04.020Z,7.21
2023-02-17T02:15:53.659Z,7.19
2023-02-17T02:18:23.584Z,7.21
2023-02-17T02:21:03.129Z,7.27
2023-02-17T02:23:31.868Z,7.26
2023-02-17T02:26:05.259Z,7.24
2023-02-17T02:29:04.281Z,7.30
2023-02-17T02:31:57.205Z,7.27
2023-02-17T02:34:25.661Z,7.32
2023-02-17T02:37:21.575Z,7.30
2023-02-17T02:39:56.800Z,7.30
2023-02-17T02:42:26.616Z,7.33
2023-02-17T02:44:53.054Z,7.41
2023-02-17T02:47:38.153Z,7.39
2023-02-17T02:50:04.548Z,7.37
2023-02-17T02:52:30.712Z,7.41
2023-02-17T02:55:02.957Z,7.38
2023-02-17T02:57:35.971Z,7.36
2023-02-17T03:00:28.622Z,7.37
2023-02-17T03:02:59.454Z,7.36
2023-02-17T03:05:32.582Z,7.37
2023-02-17T03:08:04.967Z,7.36
2023-02-17T03:10:31.214Z,7.49
2023-02-17T03:12:59.912Z,7.45
2023-02-17T03:15:26.955Z,7.44
2023-02-17T03:17:53.192Z,7.44
2023-02-17T03:20:19.474Z,7.44
2023-02-17T03:22:45.922Z,7.45
2023-02-17T03:25:14.575Z,7.46
2023-02-17T03:27:44.296Z,7.48
2023-02-17T03:30:10.909Z,7.54
2023-02-17T03:32:37.236Z,7.52
2023-02-17T03:35:03.456Z,7.57
2023-02-17T03:37:29.800Z,7.59
2023-02-17T03:39:56.036Z,7.61
2023-02-17T03:42:22.258Z,7.58
2023-02-17T03:44:48.493Z,7.55
2023-02-17T03:47:14.750Z,7.58
2023-02-17T03:49:40.961Z,7.60
2023-02-17T03:52:13.968Z,7.59
2023-02-17T03:54:40.200Z,7.60
2023-02-17T03:57:06.411Z,7.60
2023-02-17T03:59:33.093Z,7.60
2023-02-17T04:02:00.258Z,7.58
2023-02-17T04:04:26.610Z,7.61
2023-02-17T04:06:52.868Z,7.67
2023-02-17T04:09:19.118Z,7.68
2023-02-17T04:11:45.337Z,7.67
2023-02-17T04:14:14.053Z,7.72
2023-02-17T04:16:40.446Z,7.68
2023-02-17T04:19:06.882Z,7.74
2023-02-17T04:21:33.210Z,7.73
2023-02-17T04:24:02.957Z,7.77
2023-02-17T04:26:32.342Z,7.76
2023-02-17T04:28:58.680Z,7.78
2023-02-17T04:31:24.953Z,7.74
2023-02-17T04:33:55.153Z,7.78
2023-02-17T04:36:21.875Z,7.81
2023-02-17T04:38:48.151Z,7.79
2023-02-17T04:41:14.536Z,7.82
2023-02-17T04:43:40.754Z,7.85
2023-02-17T04:46:07.319Z,7.84
2023-02-17T04:48:33.861Z,7.91
2023-02-17T04:51:00.131Z,7.89
2023-02-17T04:53:26.537Z,7.88
2023-02-17T04:55:52.868Z,7.89
2023-02-17T04:58:24.681Z,7.93
2023-02-17T05:00:50.966Z,7.94
2023-02-17T05:03:17.795Z,7.92
2023-02-17T05:05:45.259Z,7.95
2023-02-17T05:08:11.529Z,7.92
2023-02-17T05:10:37.763Z,7.97
2023-02-17T05:13:04.012Z,7.94
2023-02-17T05:15:30.334Z,7.98
2023-02-17T05:17:56.536Z,7.98
2023-02-17T05:20:22.752Z,7.95
2023-02-17T05:22:49.071Z,7.97
2023-02-17T05:25:15.319Z,7.99
2023-02-17T05:27:41.550Z,8.00
2023-02-17T05:30:07.879Z,7.99
2023-02-17T05:32:34.095Z,8.02
2023-02-17T05:35:00.334Z,8.02
2023-02-17T05:37:33.263Z,8.02
2023-02-17T05:40:02.592Z,8.08
2023-02-17T05:42:28.890Z,8.11
2023-02-17T05:44:55.502Z,8.17
2023-02-17T05:47:22.044Z,8.12
2023-02-17T05:49:48.262Z,8.12
2023-02-17T05:52:14.479Z,8.14
2023-02-17T05:54:58.300Z,8.20
2023-02-17T05:57:26.990Z,8.21
2023-02-17T05:59:53.213Z,8.25
2023-02-17T06:02:19.468Z,8.26
2023-02-17T06:04:45.803Z,8.33
2023-02-17T06:07:12.079Z,8.29
2023-02-17T06:09:38.296Z,8.34
2023-02-17T06:12:04.623Z,8.32
2023-02-17T06:14:30.871Z,8.29
2023-02-17T06:16:57.105Z,8.32
2023-02-17T06:19:23.626Z,8.31
2023-02-17T06:21:49.895Z,8.33
2023-02-17T06:24:16.135Z,8.37
2023-02-17T06:26:42.368Z,8.37
2023-02-17T06:29:08.751Z,8.47
2023-02-17T06:31:38.440Z,8.50
2023-02-17T06:34:06.552Z,8.48
2023-02-17T06:36:33.026Z,8.49
2023-02-17T06:38:59.243Z,8.51
2023-02-17T06:41:25.493Z,8.50
2023-02-17T06:43:51.739Z,8.51
2023-02-17T06:46:17.956Z,8.55
2023-02-17T06:48:44.174Z,8.57
2023-02-17T06:51:24.074Z,8.60
2023-02-17T06:53:50.284Z,8.63
2023-02-17T06:56:16.507Z,8.65
2023-02-17T06:58:42.814Z,8.66
2023-02-17T07:01:14.134Z,8.78
2023-02-17T07:03:40.371Z,8.81
2023-02-17T07:06:06.923Z,8.76
2023-02-17T07:08:34.145Z,8.79
2023-02-17T07:11:04.085Z,8.83
2023-02-17T07:13:30.686Z,8.81
2023-02-17T07:15:56.954Z,8.86
2023-02-17T07:18:23.157Z,8.84
2023-02-17T07:20:49.388Z,8.84
2023-02-17T07:23:15.598Z,8.92
2023-02-17T07:25:41.817Z,8.91
2023-02-17T07:28:08.039Z,8.96
2023-02-17T07:30:37.506Z,8.98
2023-02-17T07:33:06.045Z,9.03
2023-02-17T07:35:41.937Z,8.98
2023-02-17T07:38:08.382Z,9.00
2023-02-17T07:40:35.590Z,9.03
2023-02-17T07:43:01.786Z,9.06
2023-02-17T07:45:28.105Z,9.09
2023-02-17T07:47:54.335Z,9.09
2023-02-17T07:50:20.585Z,9.12
2023-02-17T07:52:46.789Z,9.07
2023-02-17T07:55:13.014Z,9.09
2023-02-17T07:57:39.223Z,9.06
2023-02-17T08:00:05.750Z,9.09
2023-02-17T08:02:31.973Z,9.13
2023-02-17T08:04:58.205Z,9.13
2023-02-17T08:07:24.407Z,9.23
2023-02-17T08:09:50.619Z,9.22
2023-02-17T08:12:17.380Z,9.26
2023-02-17T08:14:43.582Z,9.21
2023-02-17T08:17:09.794Z,9.28
2023-02-17T08:19:47.403Z,9.25
2023-02-17T08:22:14.761Z,9.27
2023-02-17T08:24:43.948Z,9.28
2023-02-17T08:27:10.175Z,9.31
2023-02-17T08:29:36.379Z,9.39
2023-02-17T08:32:02.977Z,9.35
2023-02-17T08:34:29.365Z,9.37
2023-02-17T08:36:55.592Z,9.40
2023-02-17T08:39:21.817Z,9.43
2023-02-17T08:41:48.038Z,9.42
2023-02-17T08:44:15.186Z,9.49
2023-02-17T08:46:43.960Z,9.47
2023-02-17T08:49:10.232Z,9.50
2023-02-17T08:51:36.744Z,9.49
2023-02-17T08:54:03.680Z,9.54
2023-02-17T08:56:30.087Z,9.50
2023-02-17T08:58:56.392Z,9.56
2023-02-17T09:01:22.677Z,9.57
2023-02-17T09:03:49.261Z,9.57
2023-02-17T09:06:15.629Z,9.57
2023-02-17T09:08:42.210Z,9.57
2023-02-17T09:11:09.678Z,9.60
2023-02-17T09:13:36.319Z,9.59
2023-02-17T09:16:02.758Z,9.57
2023-02-17T09:18:30.492Z,9.58
2023-02-17T09:20:56.820Z,9.61
2023-02-17T09:23:23.047Z,9.63
2023-02-17T09:25:49.344Z,9.64
2023-02-17T09:28:15.944Z,9.68
2023-02-17T09:30:42.470Z,9.68
2023-02-17T09:33:09.049Z,9.70
2023-02-17T09:35:35.271Z,9.69
2023-02-17T09:38:01.540Z,9.69
2023-02-17T09:40:46.974Z,9.65
2023-02-17T09:43:14.290Z,9.69
2023-02-17T09:45:41.811Z,9.70
2023-02-17T09:48:08.634Z,9.73
2023-02-17T09:50:37.953Z,9.71
2023-02-17T09:53:23.090Z,9.70
2023-02-17T09:55:49.523Z,9.72
2023-02-17T09:58:17.524Z,9.74
2023-02-17T10:00:45.174Z,9.78
2023-02-17T10:03:49.392Z,9.81
2023-02-17T10:06:16.762Z,9.80
2023-02-17T10:08:42.994Z,9.80
2023-02-17T10:11:18.250Z,9.80
2023-02-17T10:13:44.470Z,9.85
2023-02-17T10:16:11.698Z,9.83
2023-02-17T10:19:05.226Z,9.82
2023-02-17T10:21:33.049Z,9.83
2023-02-17T10:23:59.559Z,9.84
2023-02-17T10:26:44.948Z,9.86
2023-02-17T10:29:22.147Z,9.89
2023-02-17T10:31:50.394Z,9.88
2023-02-17T10:34:28.893Z,9.93
2023-02-17T10:37:16.043Z,9.92
2023-02-17T10:39:44.886Z,9.95
2023-02-17T10:42:41.536Z,9.97
2023-02-17T10:45:10.692Z,9.98
2023-02-17T10:47:37.043Z,10.01
2023-02-17T10:50:03.468Z,10.07
2023-02-17T10:52:37.727Z,10.10
2023-02-17T10:55:23.678Z,10.06
2023-02-17T10:57:54.196Z,10.07
2023-02-17T11:00:20.705Z,10.11
2023-02-17T11:02:47.780Z,10.13
2023-02-17T11:05:28.750Z,10.06
2023-02-17T11:08:05.105Z,10.02
2023-02-17T11:10:40.890Z,10.06
2023-02-17T11:13:28.233Z,10.03
2023-02-17T11:15:56.862Z,10.04
2023-02-17T11:18:28.108Z,10.05
2023-02-17T11:21:21.376Z,10.05
2023-02-17T11:23:58.853Z,10.02
2023-02-17T11:26:31.986Z,10.05
2023-02-17T11:29:13.824Z,10.06
2023-02-17T11:31:46.085Z,10.11
2023-02-17T11:34:15.828Z,10.13
2023-02-17T11:36:43.485Z,10.14
2023-02-17T11:39:33.609Z,10.14
2023-02-17T11:42:02.840Z,10.15
2023-02-17T11:44:32.265Z,10.17
2023-02-17T11:47:17.272Z,10.23
2023-02-17T11:49:46.390Z,10.25
2023-02-17T11:52:15.573Z,10.29
2023-02-17T11:55:00.086Z,10.22
2023-02-17T11:57:45.302Z,10.21
2023-02-17T12:00:19.668Z,10.27
2023-02-17T12:02:55.195Z,10.27
2023-02-17T12:05:40.382Z,10.32
2023-02-17T12:08:16.482Z,10.33
2023-02-17T12:11:06.591Z,10.37
2023-02-17T12:13:51.735Z,10.36
2023-02-17T12:16:29.951Z,10.37
2023-02-17T12:18:56.118Z,10.39
2023-02-17T12:21:41.227Z,10.41
2023-02-17T12:24:16.384Z,10.44
2023-02-17T12:26:46.247Z,10.44
2023-02-17T12:29:12.492Z,10.45
2023-02-17T12:31:47.050Z,10.47
2023-02-17T12:34:25.890Z,10.49
2023-02-17T12:36:52.109Z,10.50
2023-02-17T12:39:19.071Z,10.50
2023-02-17T12:42:11.665Z,10.51
2023-02-17T12:44:39.131Z,10.51
2023-02-17T12:47:28.633Z,10.56
2023-02-17T12:50:05.309Z,10.56
2023-02-17T12:52:32.933Z,10.58
2023-02-17T12:55:11.660Z,10.63
2023-02-17T12:57:37.819Z,10.66
2023-02-17T13:00:11.121Z,10.67
2023-02-17T13:02:37.396Z,10.69
2023-02-17T13:05:03.680Z,10.71
2023-02-17T13:07:34.158Z,10.67
2023-02-17T13:10:00.386Z,10.67
2023-02-17T13:12:26.590Z,10.65
2023-02-17T13:14:57.827Z,10.67
2023-02-17T13:17:31.024Z,10.69
2023-02-17T13:20:14.771Z,10.71
2023-02-17T13:22:41.972Z,10.76
2023-02-17T13:25:11.433Z,10.78
2023-02-17T13:27:38.210Z,10.84
2023-02-17T13:30:05.755Z,10.83
2023-02-17T13:32:33.117Z,10.81
2023-02-17T13:35:03.937Z,10.78
2023-02-17T13:37:33.215Z,10.75
2023-02-17T13:39:59.917Z,10.78
2023-02-17T13:42:39.520Z,10.80
2023-02-17T13:45:17.971Z,10.84
2023-02-17T13:47:44.503Z,10.80
2023-02-17T13:50:29.030Z,10.84
2023-02-17T13:52:55.397Z,10.85
2023-02-17T13:55:21.673Z,10.85
2023-02-17T13:57:51.247Z,10.89
2023-02-17T14:00:20.544Z,10.90
2023-02-17T14:02:53.870Z,10.85
2023-02-17T14:05:25.524Z,10.83
2023-02-17T14:07:51.766Z,10.81
2023-02-17T14:10:19.172Z,10.86
2023-02-17T14:12:45.410Z,10.86
2023-02-17T14:15:18.303Z,10.84
2023-02-17T14:17:44.504Z,10.78
2023-02-17T14:20:26.956Z,10.75
2023-02-17T14:23:19.579Z,10.74
2023-02-17T14:25:45.780Z,10.76
2023-02-17T14:28:24.858Z,10.78
2023-02-17T14:30:51.530Z,10.80
2023-02-17T14:33:19.122Z,10.86
2023-02-17T14:35:51.823Z,10.87
2023-02-17T14:38:36.979Z,10.91
2023-02-17T14:41:03.842Z,10.98
2023-02-17T14:43:30.228Z,10.93
2023-02-17T14:45:56.450Z,10.92
2023-02-17T14:48:22.722Z,10.86
2023-02-17T14:50:48.935Z,10.82
2023-02-17T14:53:21.008Z,10.77
2023-02-17T14:55:48.210Z,10.73
2023-02-17T14:58:17.649Z,10.54
2023-02-17T15:00:43.856Z,10.30
2023-02-17T15:03:10.258Z,10.23
2023-02-17T15:05:36.517Z,10.21
2023-02-17T15:08:02.772Z,10.24
2023-02-17T15:10:29.150Z,10.26
2023-02-17T15:12:55.704Z,10.22
2023-02-17T15:15:21.920Z,10.24
2023-02-17T15:17:48.284Z,10.09
2023-02-17T15:20:14.943Z,10.16
2023-02-17T15:22:41.154Z,10.13
2023-02-17T15:25:19.425Z,10.23
2023-02-17T15:27:45.756Z,10.25
2023-02-17T15:30:14.657Z,10.18
2023-02-17T15:32:40.928Z,10.10
2023-02-17T15:35:14.993Z,10.10
2023-02-17T15:37:41.465Z,10.13
2023-02-17T15:40:13.471Z,10.08
2023-02-17T15:42:39.768Z,10.16
2023-02-17T15:45:06.214Z,10.03
2023-02-17T15:47:32.757Z,9.87
2023-02-17T15:49:59.090Z,9.90
2023-02-17T15:52:25.408Z,9.86
2023-02-17T15:54:51.669Z,9.81
2023-02-17T15:57:22.118Z,9.69
2023-02-17T15:59:48.389Z,9.73
2023-02-17T16:02:20.584Z,9.66
2023-02-17T16:04:47.272Z,9.56
2023-02-17T16:07:13.692Z,9.62
2023-02-17T16:09:40.602Z,9.61
2023-02-17T16:12:10.128Z,9.37
2023-02-17T16:14:36.680Z,9.20
2023-02-17T16:17:03.324Z,9.28
2023-02-17T16:19:29.557Z,9.17
2023-02-17T16:21:57.165Z,8.90
2023-02-17T16:24:25.988Z,8.99
2023-02-17T16:26:52.318Z,9.02
2023-02-17T16:29:21.946Z,8.99
2023-02-17T16:31:48.313Z,8.81
2023-02-17T16:34:15.253Z,8.70
2023-02-17T16:36:41.749Z,8.74
2023-02-17T16:39:12.600Z,8.61
2023-02-17T16:41:39.035Z,8.64
2023-02-17T16:44:07.394Z,8.69
2023-02-17T16:46:36.379Z,8.60
2023-02-17T16:49:03.018Z,8.70
2023-02-17T16:51:52.631Z,8.59
2023-02-17T16:54:18.922Z,8.46
2023-02-17T16:56:53.191Z,8.60
2023-02-17T16:59:22.798Z,8.55
2023-02-17T17:01:49.284Z,8.45
2023-02-17T17:04:21.641Z,8.51
2023-02-17T17:10:14.327Z,8.50
2023-02-17T17:12:42.362Z,8.42
2023-02-17T17:15:08.772Z,8.51
2023-02-17T17:17:45.724Z,8.39
2023-02-17T17:20:21.758Z,8.32
2023-02-17T17:22:51.462Z,8.30
2023-02-17T17:25:17.780Z,8.34
2023-02-17T17:27:46.566Z,8.30
2023-02-17T17:30:18.319Z,8.10
2023-02-17T17:32:46.479Z,8.22
2023-02-17T17:35:13.071Z,8.13
2023-02-17T17:37:39.794Z,8.12
2023-02-17T17:40:45.902Z,8.06
2023-02-17T17:43:12.440Z,8.03
2023-02-17T17:45:38.922Z,8.06
2023-02-17T17:48:05.454Z,8.18
2023-02-17T17:50:31.667Z,8.14
2023-02-17T17:53:01.407Z,8.08
2023-02-17T17:55:27.643Z,8.06
2023-02-17T17:57:53.937Z,8.07
2023-02-17T18:00:20.457Z,8.08
2023-02-17T18:02:47.034Z,7.94
2023-02-17T18:05:13.444Z,8.01
2023-02-17T18:07:40.257Z,8.07
2023-02-17T18:10:07.456Z,8.11
2023-02-17T18:12:33.874Z,7.91
2023-02-17T18:15:00.117Z,7.94
2023-02-17T18:17:26.472Z,7.95
2023-02-17T18:19:52.778Z,7.94
2023-02-17T18:22:19.464Z,7.98
2023-02-17T18:24:46.204Z,8.07
2023-02-17T18:27:12.844Z,7.99
2023-02-17T18:29:39.179Z,8.07
2023-02-17T18:32:07.033Z,7.95
2023-02-17T18:34:33.824Z,7.98
2023-02-17T18:37:00.090Z,7.94
2023-02-17T18:39:26.452Z,7.96
2023-02-17T18:41:54.649Z,7.96
2023-02-17T18:44:20.882Z,7.85
2023-02-17T18:46:47.240Z,7.95
2023-02-17T18:49:13.523Z,7.91
2023-02-17T18:51:39.837Z,7.94
2023-02-17T18:54:09.105Z,7.95
2023-02-17T18:56:41.452Z,7.88
2023-02-17T18:59:07.754Z,8.04
2023-02-17T19:01:35.056Z,7.95
2023-02-17T19:04:13.396Z,7.96
2023-02-17T19:06:49.669Z,7.83
2023-02-17T19:09:17.547Z,7.76
2023-02-17T19:11:44.047Z,7.82
2023-02-17T19:14:15.496Z,7.82
2023-02-17T19:16:41.751Z,7.82
2023-02-17T19:19:08.053Z,7.69
2023-02-17T19:21:36.358Z,7.74
2023-02-17T19:24:02.827Z,7.73
2023-02-17T19:26:29.058Z,7.73
2023-02-17T19:28:55.301Z,7.72
2023-02-17T19:31:21.604Z,7.77
2023-02-17T19:33:47.983Z,7.68
2023-02-17T19:36:15.185Z,7.35
2023-02-17T19:38:41.450Z,7.17
2023-02-17T19:41:08.196Z,7.11
2023-02-17T19:43:34.409Z,7.25
2023-02-17T19:46:00.678Z,7.21
2023-02-17T19:48:27.059Z,7.26
2023-02-17T19:50:57.906Z,7.33
2023-02-17T19:53:24.521Z,7.42
2023-02-17T19:55:50.753Z,7.37
2023-02-17T19:58:17.138Z,7.45
2023-02-17T20:00:48.247Z,7.41
2023-02-17T20:03:14.514Z,7.52
2023-02-17T20:05:40.909Z,7.55
2023-02-17T20:08:08.307Z,7.60
2023-02-17T20:10:34.825Z,7.54
2023-02-17T20:13:04.101Z,7.57
2023-02-17T20:15:30.403Z,7.57
2023-02-17T20:18:00.330Z,7.59
2023-02-17T20:20:26.970Z,7.57
2023-02-17T20:22:53.179Z,7.48
2023-02-17T20:25:19.539Z,7.42
2023-02-17T20:27:45.812Z,7.49
2023-02-17T20:30:12.475Z,7.48
2023-02-17T20:32:44.970Z,7.40
2023-02-17T20:35:14.327Z,7.30
2023-02-17T20:37:46.547Z,7.33
2023-02-17T20:40:12.840Z,7.33
2023-02-17T20:42:50.221Z,7.34
2023-02-17T20:45:16.572Z,7.42
2023-02-17T20:47:52.806Z,7.31
2023-02-17T20:50:19.813Z,7.35
2023-02-17T20:52:46.340Z,7.38
2023-02-17T20:55:15.458Z,7.35
2023-02-17T20:57:41.749Z,7.34
2023-02-17T21:00:09.654Z,7.28
2023-02-17T21:02:35.915Z,7.21
2023-02-17T21:05:02.269Z,7.17
2023-02-17T21:07:31.466Z,7.22
2023-02-17T21:09:58.079Z,7.18
2023-02-17T21:12:24.436Z,7.14
2023-02-17T21:14:50.700Z,7.13
2023-02-17T21:17:16.907Z,7.03
2023-02-17T21:19:43.358Z,7.06
2023-02-17T21:22:09.566Z,7.10
2023-02-17T21:24:40.182Z,7.00
2023-02-17T21:27:06.644Z,7.05
2023-02-17T21:29:34.909Z,6.99
2023-02-17T21:32:04.691Z,6.98
2023-02-17T21:34:30.952Z,6.97
2023-02-17T21:36:57.167Z,6.83
2023-02-17T21:39:23.394Z,6.78
2023-02-17T21:41:52.083Z,6.71
2023-02-17T21:44:18.284Z,6.81
2023-02-17T21:46:44.566Z,6.78
2023-02-17T21:49:12.154Z,6.78
2023-02-17T21:51:38.585Z,6.79
2023-02-17T21:54:05.231Z,6.75
2023-02-17T21:56:31.511Z,6.73
2023-02-17T21:58:57.756Z,6.81
2023-02-17T22:01:24.829Z,6.73
2023-02-17T22:03:51.050Z,6.78
2023-02-17T22:06:21.335Z,6.69
2023-02-17T22:08:47.552Z,6.73
2023-02-17T22:11:14.625Z,6.74
2023-02-17T22:13:40.923Z,6.77
2023-02-17T22:16:07.551Z,6.84
2023-02-17T22:18:33.972Z,6.77
2023-02-17T22:21:00.184Z,6.83
2023-02-17T22:23:26.446Z,6.82
2023-02-17T22:25:53.754Z,6.80
2023-02-17T22:28:20.160Z,6.86
2023-02-17T22:30:52.668Z,6.79
2023-02-17T22:33:18.890Z,6.79
2023-02-17T22:35:45.108Z,6.83
2023-02-17T22:38:11.498Z,6.92
2023-02-17T22:40:41.133Z,6.77
2023-02-17T22:43:07.563Z,6.90
2023-02-17T22:45:33.821Z,6.82
2023-02-17T22:48:00.042Z,6.90
2023-02-17T22:50:26.308Z,6.94
2023-02-17T22:52:52.515Z,6.81
2023-02-17T22:55:18.711Z,6.90
2023-02-17T22:57:44.986Z,6.88
2023-02-17T23:00:11.493Z,6.83
2023-02-17T23:02:37.721Z,6.78
2023-02-17T23:05:04.020Z,6.74
2023-02-17T23:07:30.236Z,6.71
2023-02-17T23:09:56.456Z,6.82
2023-02-17T23:12:22.906Z,6.80
2023-02-17T23:14:49.201Z,6.78
2023-02-17T23:17:15.532Z,6.82
2023-02-17T23:19:41.850Z,6.90
2023-02-17T23:22:09.547Z,6.94
2023-02-17T23:24:36.712Z,6.84
2023-02-17T23:27:03.019Z,6.92
2023-02-17T23:29:29.435Z,6.87
2023-02-17T23:31:55.691Z,6.86
2023-02-17T23:34:23.168Z,6.75
2023-02-17T23:36:49.462Z,6.80
2023-02-17T23:39:15.695Z,6.81
2023-02-17T23:41:41.983Z,6.71
2023-02-17T23:44:08.873Z,6.79
2023-02-17T23:46:35.253Z,6.81
2023-02-17T23:49:01.728Z,6.76
2023-02-17T23:51:27.955Z,6.81
2023-02-17T23:53:54.175Z,6.71
2023-02-17T23:56:21.763Z,6.72
2023-02-17T23:58:47.997Z,6.69
